Time;durP1;ratioP1;P1;durP2;ratioP2;P2;SDS_P1;SDS_P2;PMS_P1;PMS_P2;Temp;Humidity;BMP_temperature;BMP_pressure;BME280_temperature;BME280_humidity;BME280_pressure;Samples;Min_cycle;Max_cycle;Signal;HPM_P1;HPM_P2
2021/05/14 00:01:08;;;;;;;2.10;1.90;;;;;;;17.74;52.14;93713.41;834242;71;28810;-78
2021/05/14 00:16:09;;;;;;;2.83;2.58;;;;;;;17.80;52.27;93727.92;828474;71;28799;-80
2021/05/14 00:31:16;;;;;;;2.65;2.40;;;;;;;17.68;52.27;93726.22;793500;74;33340;-79
2021/05/14 00:46:22;;;;;;;4.03;2.52;;;;;;;17.37;52.65;93740.39;828713;71;32709;-79
2021/05/14 01:01:10;;;;;;;2.75;2.55;;;;;;;17.35;52.47;93764.59;833982;71;30256;-80
2021/05/14 01:16:14;;;;;;;4.15;2.00;;;;;;;17.38;52.31;93758.61;827555;71;32795;-78
2021/05/14 01:31:15;;;;;;;4.22;1.80;;;;;;;17.19;52.60;93758.58;827559;71;32734;-79
2021/05/14 01:46:10;;;;;;;3.70;1.90;;;;;;;17.13;52.66;93760.76;828237;71;29689;-78
2021/05/14 02:01:14;;;;;;;2.10;2.00;;;;;;;16.96;52.98;93768.52;828424;71;33062;-78
2021/05/14 02:16:14;;;;;;;3.22;2.20;;;;;;;17.00;52.81;93772.02;828867;71;32755;-78
2021/05/14 02:31:09;;;;;;;3.25;2.70;;;;;;;16.89;52.88;93779.52;829619;71;30258;-79
2021/05/14 02:46:14;;;;;;;2.40;2.20;;;;;;;16.66;53.81;93770.09;833938;71;32772;-79
2021/05/14 03:01:45;;;;;;;2.42;2.27;;;;;;;16.62;53.90;93785.89;828093;71;30321;-78
2021/05/14 03:16:15;;;;;;;2.37;2.17;;;;;;;16.77;53.45;93796.28;827442;71;33751;-76
2021/05/14 03:31:14;;;;;;;5.03;3.75;;;;;;;15.34;58.47;93806.57;822428;71;32740;-76
2021/05/14 03:46:15;;;;;;;3.50;3.17;;;;;;;15.96;57.62;93813.22;820027;71;33300;-78
2021/05/14 04:01:12;;;;;;;4.05;3.75;;;;;;;16.97;55.69;93800.55;827544;71;32146;-79
2021/05/14 04:31:15;;;;;;;7.25;4.80;;;;;;;19.25;49.94;93814.16;821123;71;32765;-84
2021/05/14 04:46:15;;;;;;;5.60;4.42;;;;;;;20.44;46.99;93830.94;820810;71;32745;-81
2021/05/14 05:01:09;;;;;;;5.33;4.92;;;;;;;20.86;44.52;93825.81;828531;71;29634;-80
2021/05/14 05:16:10;;;;;;;6.58;5.20;;;;;;;19.73;46.27;93851.13;825884;71;29726;-81
2021/05/14 05:31:08;;;;;;;6.95;6.35;;;;;;;18.12;52.23;93855.95;828828;71;29726;-81
2021/05/14 05:46:15;;;;;;;7.50;6.80;;;;;;;17.16;55.23;93874.05;828987;71;32707;-82
2021/05/14 06:01:15;;;;;;;9.40;6.90;;;;;;;17.48;54.08;93889.91;820499;71;33207;-81
2021/05/14 06:16:09;;;;;;;7.67;6.35;;;;;;;17.27;53.66;93879.59;835458;71;29742;-79
2021/05/14 06:31:09;;;;;;;6.72;5.97;;;;;;;17.21;53.48;93899.52;835625;71;30543;-80
2021/05/14 06:46:14;;;;;;;6.28;5.67;;;;;;;17.22;52.78;93881.19;834845;71;32672;-80
2021/05/14 07:01:14;;;;;;;2.55;1.40;;;;;;;17.68;46.48;93896.56;828508;71;32665;-80
2021/05/14 07:16:17;;;;;;;2.10;1.90;;;;;;;18.59;43.75;93876.71;834367;71;33087;-82
2021/05/14 07:31:15;;;;;;;2.65;1.40;;;;;;;19.88;41.55;93872.59;834222;71;33203;-79
2021/05/14 07:46:08;;;;;;;1.07;1.07;;;;;;;19.77;39.82;93872.47;834718;71;29754;-81
2021/05/14 08:01:16;;;;;;;1.20;1.20;;;;;;;19.74;39.57;93888.58;834592;71;32707;-81
2021/05/14 08:16:18;;;;;;;1.95;1.20;;;;;;;19.48;38.45;93876.59;834408;71;32779;-79
2021/05/14 08:31:20;;;;;;;1.90;1.80;;;;;;;20.39;37.57;93862.69;831022;71;31682;-79
2021/05/14 08:46:26;;;;;;;2.67;2.47;;;;;;;22.24;35.74;93872.96;834761;71;31838;-78
2021/05/14 09:46:13;;;;;;;2.53;1.30;;;;;;;27.50;29.20;166392.17;828041;70;29230;-77
2021/05/14 10:01:17;;;;;;;1.40;1.30;;;;;;;25.79;31.44;93904.02;827888;71;31711;-76
2021/05/14 10:16:17;;;;;;;1.50;1.40;;;;;;;23.88;43.29;93924.50;834363;71;31764;-80
2021/05/14 10:31:47;;;;;;;3.87;2.20;;;;;;;22.35;49.88;93919.98;795907;73;31995;-80
2021/05/14 10:46:17;;;;;;;4.27;3.00;;;;;;;23.24;50.59;93905.83;828511;71;31773;-77
2021/05/14 11:01:28;;;;;;;1.63;1.53;;;;;;;24.23;41.61;93898.76;834176;71;29318;-78
2021/05/14 11:16:46;;;;;;;3.10;1.60;;;;;;;23.01;41.45;93914.95;835389;71;29240;-81
2021/05/14 11:31:24;;;;;;;1.80;1.70;;;;;;;23.37;41.62;93897.59;827498;71;31710;-77
2021/05/14 11:46:36;;;;;;;;;;;;;;;;;;;;;
2021/05/14 12:01:14;;;;;;;1.83;1.50;;;;;;;24.91;33.34;93868.88;824071;71;32199;-78
2021/05/14 12:16:15;;;;;;;1.53;1.13;;;;;;;24.82;31.61;93867.78;828288;71;31555;-77
2021/05/14 12:31:33;;;;;;;2.10;1.87;;;;;;;24.21;31.15;93903.75;834371;71;32299;-77
2021/05/14 13:01:11;;;;;;;1.70;1.60;;;;;;;21.98;36.83;93958.92;829847;71;30418;-78
2021/05/14 13:16:17;;;;;;;1.95;1.40;;;;;;;21.45;37.81;93946.76;833934;71;32159;-77
2021/05/14 13:31:18;;;;;;;1.20;1.20;;;;;;;21.40;36.71;93949.73;827778;71;31710;-78
2021/05/14 13:46:08;;;;;;;1.27;1.17;;;;;;;21.88;35.01;93940.91;834213;71;28716;-78
2021/05/14 14:01:17;;;;;;;1.10;1.00;;;;;;;21.88;36.39;93943.03;834611;71;31804;-77
2021/05/14 14:16:09;;;;;;;1.42;1.30;;;;;;;21.43;35.92;93950.91;834482;71;29302;-76
2021/05/14 14:31:14;;;;;;;2.35;1.20;;;;;;;21.11;34.60;93974.84;827896;71;31768;-76
2021/05/14 14:46:12;;;;;;;1.00;1.00;;;;;;;20.59;34.23;93985.36;835505;71;30429;-82
2021/05/14 15:01:45;;;;;;;1.92;1.10;;;;;;;20.95;33.89;93967.07;829835;70;29348;-83
2021/05/14 15:16:15;;;;;;;1.27;1.25;;;;;;;21.27;34.44;93969.27;827644;71;32129;-78
2021/05/14 15:31:09;;;;;;;2.45;1.25;;;;;;;20.81;36.16;93975.69;828381;71;29267;-79
2021/05/14 15:46:14;;;;;;;1.55;1.45;;;;;;;20.65;38.09;93965.81;826509;71;31685;-79
2021/05/14 16:01:08;;;;;;;2.50;2.10;;;;;;;20.41;39.12;93965.70;815766;71;29172;-77
2021/05/14 16:16:16;;;;;;;2.10;1.90;;;;;;;20.17;39.15;93957.05;834339;71;31766;-79
2021/05/14 16:31:16;;;;;;;2.20;2.10;;;;;;;19.89;39.27;93960.11;827881;71;32176;-80
2021/05/14 16:46:10;;;;;;;2.10;2.00;;;;;;;19.59;39.55;93958.13;821773;71;29299;-76
2021/05/14 17:01:10;;;;;;;2.12;2.00;;;;;;;19.26;40.43;93950.01;821893;71;29298;-78
2021/05/14 17:16:08;;;;;;;2.55;2.35;;;;;;;18.95;41.90;93960.52;822828;71;28653;-76
2021/05/14 17:31:10;;;;;;;4.03;3.25;;;;;;;18.61;43.24;93959.50;824070;71;30345;-77
2021/05/14 17:46:17;;;;;;;3.02;2.50;;;;;;;18.23;44.53;93961.08;821517;71;33005;-80
2021/05/14 18:01:08;;;;;;;3.87;3.20;;;;;;;17.85;45.06;93969.77;822182;71;29767;-82
2021/05/14 18:16:16;;;;;;;5.70;5.10;;;;;;;17.60;46.50;93985.88;820648;71;33156;-79
2021/05/14 18:31:22;;;;;;;16.20;12.15;;;;;;;17.34;47.48;93997.02;821451;70;31858;-79
2021/05/14 18:46:14;;;;;;;6.50;4.95;;;;;;;16.79;49.50;94015.30;820835;71;32809;-79
2021/05/14 19:01:14;;;;;;;9.83;6.58;;;;;;;16.56;50.19;94039.65;824118;71;32841;-79
2021/05/14 19:16:15;;;;;;;6.15;5.55;;;;;;;16.51;51.11;94048.41;821910;71;32804;-81
2021/05/14 20:01:18;;;;;;;4.60;3.30;;;;;;;16.78;58.42;94063.53;822305;71;32800;-80
2021/05/14 20:16:12;;;;;;;5.42;3.70;;;;;;;17.12;56.60;94068.62;823545;71;31899;-80
2021/05/14 20:31:17;;;;;;;3.55;3.35;;;;;;;17.36;53.83;94063.74;821710;71;32947;-79
2021/05/14 20:46:14;;;;;;;3.98;3.62;;;;;;;17.49;52.65;94059.12;834664;71;33387;-79
2021/05/14 21:01:51;;;;;;;6.92;6.05;;;;;;;17.67;52.81;94042.31;834930;71;32741;-81
2021/05/14 21:16:16;;;;;;;4.37;4.00;;;;;;;17.77;53.02;94055.81;827746;71;33173;-82
2021/05/14 21:31:14;;;;;;;5.87;3.40;;;;;;;17.75;51.76;94069.22;834332;71;32687;-81
2021/05/14 21:46:08;;;;;;;4.08;3.67;;;;;;;17.17;53.57;94074.98;828504;71;29794;-84
2021/05/14 22:01:09;;;;;;;6.08;4.70;;;;;;;17.50;53.01;94087.97;828332;71;30333;-82
2021/05/14 22:16:08;;;;;;;6.25;3.80;;;;;;;17.72;53.25;94092.45;828443;71;30188;-84
2021/05/14 22:31:09;;;;;;;4.17;3.80;;;;;;;17.72;52.63;94076.53;828896;71;30325;-83
2021/05/14 22:46:09;;;;;;;4.83;4.30;;;;;;;17.78;52.49;94072.50;828762;71;30254;-81
2021/05/14 23:01:20;;;;;;;3.90;3.50;;;;;;;17.65;52.50;94057.80;827495;71;32671;-81
2021/05/14 23:16:18;;;;;;;4.45;3.60;;;;;;;17.54;52.84;94063.63;835998;71;32605;-82
2021/05/14 23:31:11;;;;;;;5.30;3.60;;;;;;;16.92;54.76;94053.90;834035;71;30395;-81
2021/05/14 23:46:09;;;;;;;4.22;3.83;;;;;;;17.00;54.63;94042.94;829595;71;30332;-83
